sensor_id;sensor_type;location;lat;lon;timestamp;pressure;altitude;pressure_sealevel;temperature;humidity
13456;BME280;6800;50.940;6.940;2022-07-23T00:00:20;100994.03;;;30.56;38.02
13456;BME280;6800;50.940;6.940;2022-07-23T00:04:21;100991.06;;;28.57;41.91
13456;BME280;6800;50.940;6.940;2022-07-23T00:08:21;101002.66;;;29.79;39.34
13456;BME280;6800;50.940;6.940;2022-07-23T00:12:21;101016.81;;;30.73;37.66
13456;BME280;6800;50.940;6.940;2022-07-23T00:16:22;101031.31;;;30.65;37.90
13456;BME280;6800;50.940;6.940;2022-07-23T00:20:22;101023.47;;;30.38;39.52
13456;BME280;6800;50.940;6.940;2022-07-23T00:24:22;101007.66;;;30.08;40.27
13456;BME280;6800;50.940;6.940;2022-07-23T00:28:22;101013.06;;;30.15;41.17
13456;BME280;6800;50.940;6.940;2022-07-23T00:32:23;101011.59;;;30.06;41.30
13456;BME280;6800;50.940;6.940;2022-07-23T00:36:23;101028.28;;;29.69;41.93
13456;BME280;6800;50.940;6.940;2022-07-23T00:40:25;101019.97;;;28.33;44.77
13456;BME280;6800;50.940;6.940;2022-07-23T00:44:27;101012.00;;;26.82;47.79
13456;BME280;6800;50.940;6.940;2022-07-23T00:48:27;100999.19;;;27.43;46.05
13456;BME280;6800;50.940;6.940;2022-07-23T00:52:31;101011.97;;;29.29;42.01
13456;BME280;6800;50.940;6.940;2022-07-23T00:56:32;101014.63;;;28.12;44.41
13456;BME280;6800;50.940;6.940;2022-07-23T01:00:32;101018.78;;;28.91;42.58
13456;BME280;6800;50.940;6.940;2022-07-23T01:04:33;101018.47;;;28.73;42.49
13456;BME280;6800;50.940;6.940;2022-07-23T01:08:33;101027.25;;;28.88;41.97
13456;BME280;6800;50.940;6.940;2022-07-23T01:12:34;101009.84;;;28.08;45.23
13456;BME280;6800;50.940;6.940;2022-07-23T01:16:34;100999.50;;;28.81;43.66
13456;BME280;6800;50.940;6.940;2022-07-23T01:20:35;100996.53;;;28.21;45.07
13456;BME280;6800;50.940;6.940;2022-07-23T01:24:36;100989.56;;;27.34;48.26
13456;BME280;6800;50.940;6.940;2022-07-23T01:28:36;100991.88;;;26.64;49.81
13456;BME280;6800;50.940;6.940;2022-07-23T01:32:36;100981.31;;;27.86;47.43
13456;BME280;6800;50.940;6.940;2022-07-23T01:36:37;100990.19;;;28.28;46.06
13456;BME280;6800;50.940;6.940;2022-07-23T01:40:37;100991.56;;;27.97;46.19
13456;BME280;6800;50.940;6.940;2022-07-23T01:44:37;100980.22;;;27.59;47.09
13456;BME280;6800;50.940;6.940;2022-07-23T01:48:38;100980.53;;;28.62;45.48
13456;BME280;6800;50.940;6.940;2022-07-23T01:52:38;100973.50;;;27.48;47.99
13456;BME280;6800;50.940;6.940;2022-07-23T01:56:38;100973.69;;;28.59;45.47
13456;BME280;6800;50.940;6.940;2022-07-23T02:00:39;100980.22;;;28.71;44.71
13456;BME280;6800;50.940;6.940;2022-07-23T02:04:39;100983.88;;;28.64;45.00
13456;BME280;6800;50.940;6.940;2022-07-23T02:08:39;100987.44;;;28.71;45.31
13456;BME280;6800;50.940;6.940;2022-07-23T02:12:40;100984.38;;;28.80;45.40
13456;BME280;6800;50.940;6.940;2022-07-23T02:16:40;100976.72;;;28.77;45.03
13456;BME280;6800;50.940;6.940;2022-07-23T02:20:41;100966.78;;;28.71;44.55
13456;BME280;6800;50.940;6.940;2022-07-23T02:24:42;100971.13;;;28.79;44.70
13456;BME280;6800;50.940;6.940;2022-07-23T02:28:42;100965.38;;;28.82;44.39
13456;BME280;6800;50.940;6.940;2022-07-23T02:32:42;100965.53;;;27.40;47.54
13456;BME280;6800;50.940;6.940;2022-07-23T02:36:42;100974.31;;;28.33;45.07
13456;BME280;6800;50.940;6.940;2022-07-23T02:40:43;100972.94;;;28.72;44.81
13456;BME280;6800;50.940;6.940;2022-07-23T02:44:43;100966.53;;;29.07;43.90
13456;BME280;6800;50.940;6.940;2022-07-23T02:48:43;100976.38;;;28.93;44.46
13456;BME280;6800;50.940;6.940;2022-07-23T02:52:44;100973.75;;;28.17;45.24
13456;BME280;6800;50.940;6.940;2022-07-23T02:56:44;100978.47;;;27.51;47.39
13456;BME280;6800;50.940;6.940;2022-07-23T03:00:44;100977.44;;;28.58;45.02
13456;BME280;6800;50.940;6.940;2022-07-23T03:04:45;100970.00;;;28.60;44.62
13456;BME280;6800;50.940;6.940;2022-07-23T03:08:46;100971.13;;;28.51;44.62
13456;BME280;6800;50.940;6.940;2022-07-23T03:12:47;100976.88;;;28.69;44.83
13456;BME280;6800;50.940;6.940;2022-07-23T03:16:49;100977.03;;;28.61;45.03
13456;BME280;6800;50.940;6.940;2022-07-23T03:20:50;100967.81;;;28.49;44.87
13456;BME280;6800;50.940;6.940;2022-07-23T03:24:51;100976.72;;;28.49;44.91
13456;BME280;6800;50.940;6.940;2022-07-23T03:28:54;100977.66;;;28.35;45.12
13456;BME280;6800;50.940;6.940;2022-07-23T03:32:54;100978.50;;;28.42;44.90
13456;BME280;6800;50.940;6.940;2022-07-23T03:36:54;100976.03;;;28.41;44.91
13456;BME280;6800;50.940;6.940;2022-07-23T03:40:55;100982.28;;;28.48;44.90
13456;BME280;6800;50.940;6.940;2022-07-23T03:44:55;100973.88;;;28.30;45.58
13456;BME280;6800;50.940;6.940;2022-07-23T03:48:55;100979.97;;;28.17;45.12
13456;BME280;6800;50.940;6.940;2022-07-23T03:52:56;100982.13;;;28.28;44.81
13456;BME280;6800;50.940;6.940;2022-07-23T03:56:56;100981.69;;;28.04;45.62
13456;BME280;6800;50.940;6.940;2022-07-23T04:00:56;100979.91;;;28.11;45.75
13456;BME280;6800;50.940;6.940;2022-07-23T04:04:56;100976.78;;;28.07;45.47
13456;BME280;6800;50.940;6.940;2022-07-23T04:08:57;100977.91;;;28.19;45.62
13456;BME280;6800;50.940;6.940;2022-07-23T04:12:57;100980.81;;;28.18;45.45
13456;BME280;6800;50.940;6.940;2022-07-23T04:16:57;100995.72;;;28.20;45.83
13456;BME280;6800;50.940;6.940;2022-07-23T04:20:58;100982.00;;;28.36;45.43
13456;BME280;6800;50.940;6.940;2022-07-23T04:24:58;100988.56;;;28.34;45.54
13456;BME280;6800;50.940;6.940;2022-07-23T04:28:58;100989.31;;;28.49;44.68
13456;BME280;6800;50.940;6.940;2022-07-23T04:32:59;101000.09;;;28.55;45.26
13456;BME280;6800;50.940;6.940;2022-07-23T04:36:59;101003.00;;;28.54;44.81
13456;BME280;6800;50.940;6.940;2022-07-23T04:41:00;101014.47;;;28.63;44.60
13456;BME280;6800;50.940;6.940;2022-07-23T04:45:00;101020.28;;;28.66;44.58
13456;BME280;6800;50.940;6.940;2022-07-23T04:49:00;101033.97;;;28.71;44.75
13456;BME280;6800;50.940;6.940;2022-07-23T04:53:01;101037.97;;;28.82;44.65
13456;BME280;6800;50.940;6.940;2022-07-23T04:57:01;101049.50;;;28.76;44.69
13456;BME280;6800;50.940;6.940;2022-07-23T05:01:02;101039.75;;;29.02;44.66
13456;BME280;6800;50.940;6.940;2022-07-23T05:05:02;101050.97;;;29.12;43.80
13456;BME280;6800;50.940;6.940;2022-07-23T05:09:02;101052.97;;;29.31;44.05
13456;BME280;6800;50.940;6.940;2022-07-23T05:13:03;101063.34;;;29.35;43.58
13456;BME280;6800;50.940;6.940;2022-07-23T05:17:03;101060.56;;;29.62;43.34
13456;BME280;6800;50.940;6.940;2022-07-23T05:21:03;101064.66;;;29.52;43.21
13456;BME280;6800;50.940;6.940;2022-07-23T05:25:04;101065.81;;;29.77;42.47
13456;BME280;6800;50.940;6.940;2022-07-23T05:29:05;101065.09;;;30.16;41.64
13456;BME280;6800;50.940;6.940;2022-07-23T05:33:05;101057.06;;;30.48;41.68
13456;BME280;6800;50.940;6.940;2022-07-23T05:37:07;101060.78;;;30.73;40.55
13456;BME280;6800;50.940;6.940;2022-07-23T05:41:07;101055.59;;;31.05;39.72
13456;BME280;6800;50.940;6.940;2022-07-23T05:45:08;101062.22;;;31.73;39.73
13456;BME280;6800;50.940;6.940;2022-07-23T05:49:09;101067.53;;;32.55;38.12
13456;BME280;6800;50.940;6.940;2022-07-23T05:53:09;101063.63;;;32.51;37.27
13456;BME280;6800;50.940;6.940;2022-07-23T05:57:09;101069.63;;;32.53;37.11
13456;BME280;6800;50.940;6.940;2022-07-23T06:01:10;101060.75;;;32.88;36.07
13456;BME280;6800;50.940;6.940;2022-07-23T06:05:11;101067.25;;;32.63;36.57
13456;BME280;6800;50.940;6.940;2022-07-23T06:09:12;101069.47;;;33.33;35.45
13456;BME280;6800;50.940;6.940;2022-07-23T06:13:14;101065.75;;;34.12;34.84
13456;BME280;6800;50.940;6.940;2022-07-23T06:17:14;101069.25;;;33.17;35.67
13456;BME280;6800;50.940;6.940;2022-07-23T06:21:15;101076.00;;;33.44;35.31
13456;BME280;6800;50.940;6.940;2022-07-23T06:25:15;101078.81;;;33.85;34.44
13456;BME280;6800;50.940;6.940;2022-07-23T06:29:16;101074.78;;;34.35;33.59
13456;BME280;6800;50.940;6.940;2022-07-23T06:33:16;101070.84;;;35.07;32.45
13456;BME280;6800;50.940;6.940;2022-07-23T06:37:17;101080.50;;;35.50;30.96
13456;BME280;6800;50.940;6.940;2022-07-23T06:41:17;101075.31;;;36.04;30.43
13456;BME280;6800;50.940;6.940;2022-07-23T06:45:17;101076.78;;;35.95;31.03
13456;BME280;6800;50.940;6.940;2022-07-23T06:49:18;101071.06;;;37.30;29.02
13456;BME280;6800;50.940;6.940;2022-07-23T06:53:18;101077.63;;;37.99;27.21
13456;BME280;6800;50.940;6.940;2022-07-23T06:57:18;101078.94;;;37.91;27.65
13456;BME280;6800;50.940;6.940;2022-07-23T07:01:19;101087.22;;;38.60;26.57
13456;BME280;6800;50.940;6.940;2022-07-23T07:05:19;101084.25;;;38.30;27.37
13456;BME280;6800;50.940;6.940;2022-07-23T07:09:20;101092.72;;;38.65;26.94
13456;BME280;6800;50.940;6.940;2022-07-23T07:13:20;101088.72;;;39.76;24.58
13456;BME280;6800;50.940;6.940;2022-07-23T07:17:20;101100.19;;;37.46;27.04
13456;BME280;6800;50.940;6.940;2022-07-23T07:21:20;101096.69;;;38.84;25.10
13456;BME280;6800;50.940;6.940;2022-07-23T07:25:21;101094.72;;;37.89;26.10
13456;BME280;6800;50.940;6.940;2022-07-23T07:29:21;101098.88;;;38.82;25.78
13456;BME280;6800;50.940;6.940;2022-07-23T07:33:21;101100.09;;;38.33;26.07
13456;BME280;6800;50.940;6.940;2022-07-23T07:37:22;101107.41;;;38.00;26.50
13456;BME280;6800;50.940;6.940;2022-07-23T07:41:22;101112.59;;;35.41;29.44
13456;BME280;6800;50.940;6.940;2022-07-23T07:45:24;101117.19;;;36.03;28.63
13456;BME280;6800;50.940;6.940;2022-07-23T07:49:24;101114.97;;;34.91;29.41
13456;BME280;6800;50.940;6.940;2022-07-23T07:53:25;101123.41;;;35.01;29.79
13456;BME280;6800;50.940;6.940;2022-07-23T07:57:25;101124.28;;;36.04;28.22
13456;BME280;6800;50.940;6.940;2022-07-23T08:01:25;101126.03;;;36.72;26.82
13456;BME280;6800;50.940;6.940;2022-07-23T08:05:27;101122.66;;;36.98;26.73
13456;BME280;6800;50.940;6.940;2022-07-23T08:09:29;101128.84;;;36.60;27.44
13456;BME280;6800;50.940;6.940;2022-07-23T08:13:29;101128.38;;;37.35;26.83
13456;BME280;6800;50.940;6.940;2022-07-23T08:17:29;101130.72;;;38.40;25.44
13456;BME280;6800;50.940;6.940;2022-07-23T08:21:29;101141.53;;;38.56;24.94
13456;BME280;6800;50.940;6.940;2022-07-23T08:25:35;101139.31;;;39.73;24.50
13456;BME280;6800;50.940;6.940;2022-07-23T08:29:35;101136.75;;;38.68;25.34
13456;BME280;6800;50.940;6.940;2022-07-23T08:33:36;101143.66;;;38.49;25.26
13456;BME280;6800;50.940;6.940;2022-07-23T08:37:36;101144.88;;;39.37;24.70
13456;BME280;6800;50.940;6.940;2022-07-23T08:41:39;101144.84;;;34.91;28.40
13456;BME280;6800;50.940;6.940;2022-07-23T08:45:45;101142.31;;;37.98;25.41
13456;BME280;6800;50.940;6.940;2022-07-23T08:49:46;101144.75;;;39.68;23.92
13456;BME280;6800;50.940;6.940;2022-07-23T08:53:48;101150.09;;;39.01;24.21
13456;BME280;6800;50.940;6.940;2022-07-23T08:57:50;101147.44;;;40.40;23.14
13456;BME280;6800;50.940;6.940;2022-07-23T09:01:50;101148.81;;;41.08;21.33
13456;BME280;6800;50.940;6.940;2022-07-23T09:05:52;101148.28;;;41.11;21.09
13456;BME280;6800;50.940;6.940;2022-07-23T09:10:06;101159.34;;;38.64;23.91
13456;BME280;6800;50.940;6.940;2022-07-23T09:14:06;101156.50;;;39.64;23.61
13456;BME280;6800;50.940;6.940;2022-07-23T09:18:08;101136.66;;;39.37;23.40
13456;BME280;6800;50.940;6.940;2022-07-23T09:22:26;101154.75;;;42.15;20.86
13456;BME280;6800;50.940;6.940;2022-07-23T09:26:42;101156.72;;;42.09;20.52
13456;BME280;6800;50.940;6.940;2022-07-23T09:30:42;101164.19;;;40.59;21.91
13456;BME280;6800;50.940;6.940;2022-07-23T09:34:49;101166.03;;;40.28;22.39
13456;BME280;6800;50.940;6.940;2022-07-23T09:38:50;101169.81;;;41.53;21.48
13456;BME280;6800;50.940;6.940;2022-07-23T09:42:56;101159.63;;;43.24;19.26
13456;BME280;6800;50.940;6.940;2022-07-23T09:46:59;101158.53;;;41.75;20.45
13456;BME280;6800;50.940;6.940;2022-07-23T09:51:02;101153.38;;;39.45;23.00
13456;BME280;6800;50.940;6.940;2022-07-23T09:55:06;101148.28;;;41.90;20.64
13456;BME280;6800;50.940;6.940;2022-07-23T09:59:07;101150.13;;;40.15;22.03
13456;BME280;6800;50.940;6.940;2022-07-23T10:03:12;101159.34;;;38.95;22.16
13456;BME280;6800;50.940;6.940;2022-07-23T10:07:13;101157.63;;;38.84;22.96
13456;BME280;6800;50.940;6.940;2022-07-23T10:11:16;101157.06;;;40.58;20.46
13456;BME280;6800;50.940;6.940;2022-07-23T10:15:18;101150.44;;;40.39;21.27
13456;BME280;6800;50.940;6.940;2022-07-23T10:19:18;101145.00;;;40.54;22.06
13456;BME280;6800;50.940;6.940;2022-07-23T10:23:28;101153.13;;;40.04;22.40
13456;BME280;6800;50.940;6.940;2022-07-23T10:27:49;101135.63;;;43.95;18.09
13456;BME280;6800;50.940;6.940;2022-07-23T10:31:58;101138.38;;;43.77;17.87
13456;BME280;6800;50.940;6.940;2022-07-23T10:36:18;101138.16;;;43.26;18.81
13456;BME280;6800;50.940;6.940;2022-07-23T10:40:21;101139.75;;;45.00;17.12
13456;BME280;6800;50.940;6.940;2022-07-23T10:44:23;101137.66;;;43.19;18.70
13456;BME280;6800;50.940;6.940;2022-07-23T10:48:25;101127.94;;;43.50;18.20
13456;BME280;6800;50.940;6.940;2022-07-23T10:52:26;101119.06;;;43.11;18.90
13456;BME280;6800;50.940;6.940;2022-07-23T10:56:49;101122.84;;;43.86;17.97
13456;BME280;6800;50.940;6.940;2022-07-23T11:00:50;101122.78;;;42.96;17.97
13456;BME280;6800;50.940;6.940;2022-07-23T11:04:52;101123.97;;;44.54;16.58
13456;BME280;6800;50.940;6.940;2022-07-23T11:09:37;101123.06;;;44.91;16.01
13456;BME280;6800;50.940;6.940;2022-07-23T11:13:39;101124.34;;;42.01;18.70
13456;BME280;6800;50.940;6.940;2022-07-23T11:21:45;101117.91;;;44.01;17.22
13456;BME280;6800;50.940;6.940;2022-07-23T11:25:46;101118.72;;;43.83;17.20
13456;BME280;6800;50.940;6.940;2022-07-23T11:29:47;101115.03;;;45.35;15.85
13456;BME280;6800;50.940;6.940;2022-07-23T11:34:26;101115.41;;;42.92;17.86
13456;BME280;6800;50.940;6.940;2022-07-23T11:38:30;101111.38;;;43.55;17.89
13456;BME280;6800;50.940;6.940;2022-07-23T11:42:31;101120.50;;;43.93;16.03
13456;BME280;6800;50.940;6.940;2022-07-23T11:46:32;101119.31;;;43.80;16.71
13456;BME280;6800;50.940;6.940;2022-07-23T11:50:33;101119.13;;;42.43;17.32
13456;BME280;6800;50.940;6.940;2022-07-23T11:54:35;101108.84;;;44.01;16.51
13456;BME280;6800;50.940;6.940;2022-07-23T11:58:36;101110.25;;;44.68;16.38
13456;BME280;6800;50.940;6.940;2022-07-23T12:02:40;101108.47;;;37.78;22.81
13456;BME280;6800;50.940;6.940;2022-07-23T12:06:40;101106.16;;;37.26;23.47
13456;BME280;6800;50.940;6.940;2022-07-23T12:10:43;101113.16;;;36.51;24.18
13456;BME280;6800;50.940;6.940;2022-07-23T12:14:52;101109.94;;;40.86;19.70
13456;BME280;6800;50.940;6.940;2022-07-23T12:18:54;101106.84;;;41.33;18.12
13456;BME280;6800;50.940;6.940;2022-07-23T12:22:58;101108.34;;;42.18;17.66
13456;BME280;6800;50.940;6.940;2022-07-23T12:27:14;101104.97;;;41.03;18.03
13456;BME280;6800;50.940;6.940;2022-07-23T12:31:15;101100.78;;;41.21;18.04
13456;BME280;6800;50.940;6.940;2022-07-23T12:35:15;101102.13;;;41.39;17.26
13456;BME280;6800;50.940;6.940;2022-07-23T12:39:32;101103.28;;;41.22;18.30
13456;BME280;6800;50.940;6.940;2022-07-23T12:43:36;101115.44;;;40.46;17.79
13456;BME280;6800;50.940;6.940;2022-07-23T12:48:01;101117.88;;;39.50;18.06
13456;BME280;6800;50.940;6.940;2022-07-23T12:52:15;101116.50;;;39.48;19.73
13456;BME280;6800;50.940;6.940;2022-07-23T12:56:20;101119.34;;;39.73;19.38
13456;BME280;6800;50.940;6.940;2022-07-23T13:00:21;101120.75;;;37.53;21.63
13456;BME280;6800;50.940;6.940;2022-07-23T13:04:22;101122.75;;;38.65;20.82
13456;BME280;6800;50.940;6.940;2022-07-23T13:08:23;101119.66;;;38.88;19.62
13456;BME280;6800;50.940;6.940;2022-07-23T13:12:24;101119.59;;;37.93;21.11
13456;BME280;6800;50.940;6.940;2022-07-23T13:16:24;101133.59;;;38.01;21.56
13456;BME280;6800;50.940;6.940;2022-07-23T13:20:24;101138.06;;;37.64;21.43
13456;BME280;6800;50.940;6.940;2022-07-23T13:24:25;101122.44;;;37.38;21.28
13456;BME280;6800;50.940;6.940;2022-07-23T13:28:25;101126.59;;;38.10;21.28
13456;BME280;6800;50.940;6.940;2022-07-23T13:32:25;101134.88;;;36.18;24.18
13456;BME280;6800;50.940;6.940;2022-07-23T13:36:26;101122.56;;;36.43;23.62
13456;BME280;6800;50.940;6.940;2022-07-23T13:40:26;101116.97;;;35.54;24.58
13456;BME280;6800;50.940;6.940;2022-07-23T13:44:26;101121.31;;;36.67;22.89
13456;BME280;6800;50.940;6.940;2022-07-23T13:48:27;101113.19;;;37.01;21.94
13456;BME280;6800;50.940;6.940;2022-07-23T13:52:29;101119.72;;;36.22;23.03
13456;BME280;6800;50.940;6.940;2022-07-23T13:56:29;101111.94;;;36.75;22.15
13456;BME280;6800;50.940;6.940;2022-07-23T14:00:30;101103.44;;;37.05;21.79
13456;BME280;6800;50.940;6.940;2022-07-23T14:04:31;101106.34;;;36.20;23.28
13456;BME280;6800;50.940;6.940;2022-07-23T14:08:31;101109.38;;;37.02;22.30
13456;BME280;6800;50.940;6.940;2022-07-23T14:12:32;101100.72;;;37.43;21.53
13456;BME280;6800;50.940;6.940;2022-07-23T14:16:32;101104.72;;;37.19;21.93
13456;BME280;6800;50.940;6.940;2022-07-23T14:20:33;101105.22;;;36.83;22.41
13456;BME280;6800;50.940;6.940;2022-07-23T14:24:34;101099.03;;;37.04;21.67
13456;BME280;6800;50.940;6.940;2022-07-23T14:28:35;101099.31;;;36.69;22.04
13456;BME280;6800;50.940;6.940;2022-07-23T14:32:36;101107.22;;;36.87;22.07
13456;BME280;6800;50.940;6.940;2022-07-23T14:36:37;101100.72;;;36.55;22.40
13456;BME280;6800;50.940;6.940;2022-07-23T14:40:37;101094.63;;;36.48;22.19
13456;BME280;6800;50.940;6.940;2022-07-23T14:44:37;101091.47;;;37.27;21.65
13456;BME280;6800;50.940;6.940;2022-07-23T14:48:38;101087.13;;;37.48;21.42
13456;BME280;6800;50.940;6.940;2022-07-23T14:52:38;101095.19;;;37.00;22.33
13456;BME280;6800;50.940;6.940;2022-07-23T14:56:39;101068.63;;;36.90;21.99
13456;BME280;6800;50.940;6.940;2022-07-23T15:00:39;101079.66;;;37.00;22.04
13456;BME280;6800;50.940;6.940;2022-07-23T15:04:40;101077.44;;;36.80;22.09
13456;BME280;6800;50.940;6.940;2022-07-23T15:08:40;101078.56;;;37.61;21.77
13456;BME280;6800;50.940;6.940;2022-07-23T15:12:40;101071.72;;;36.16;22.85
13456;BME280;6800;50.940;6.940;2022-07-23T15:16:41;101065.34;;;37.31;21.41
13456;BME280;6800;50.940;6.940;2022-07-23T15:20:41;101069.69;;;37.71;21.17
13456;BME280;6800;50.940;6.940;2022-07-23T15:24:41;101070.25;;;35.68;23.54
13456;BME280;6800;50.940;6.940;2022-07-23T15:28:42;101062.56;;;37.70;21.42
13456;BME280;6800;50.940;6.940;2022-07-23T15:32:42;101063.13;;;35.39;23.34
13456;BME280;6800;50.940;6.940;2022-07-23T15:36:42;101067.16;;;37.42;21.42
13456;BME280;6800;50.940;6.940;2022-07-23T15:40:43;101073.56;;;37.53;20.82
13456;BME280;6800;50.940;6.940;2022-07-23T15:44:43;101067.09;;;37.59;21.58
13456;BME280;6800;50.940;6.940;2022-07-23T15:48:44;101071.63;;;37.75;21.64
13456;BME280;6800;50.940;6.940;2022-07-23T15:52:45;101067.22;;;37.26;22.17
13456;BME280;6800;50.940;6.940;2022-07-23T15:56:46;101073.84;;;38.00;21.04
13456;BME280;6800;50.940;6.940;2022-07-23T16:00:47;101075.47;;;37.52;21.57
13456;BME280;6800;50.940;6.940;2022-07-23T16:04:47;101073.66;;;36.98;22.25
13456;BME280;6800;50.940;6.940;2022-07-23T16:08:47;101075.09;;;37.44;21.32
13456;BME280;6800;50.940;6.940;2022-07-23T16:12:48;101072.94;;;37.94;20.60
13456;BME280;6800;50.940;6.940;2022-07-23T16:16:48;101073.75;;;37.90;20.69
13456;BME280;6800;50.940;6.940;2022-07-23T16:20:49;101075.06;;;37.66;20.81
13456;BME280;6800;50.940;6.940;2022-07-23T16:24:53;101071.75;;;37.20;21.75
13456;BME280;6800;50.940;6.940;2022-07-23T16:28:54;101064.47;;;37.69;21.10
13456;BME280;6800;50.940;6.940;2022-07-23T16:32:54;101068.69;;;37.55;20.83
13456;BME280;6800;50.940;6.940;2022-07-23T16:36:54;101072.16;;;37.50;20.59
13456;BME280;6800;50.940;6.940;2022-07-23T16:40:55;101065.53;;;37.25;21.32
13456;BME280;6800;50.940;6.940;2022-07-23T16:44:57;101066.19;;;37.32;20.94
13456;BME280;6800;50.940;6.940;2022-07-23T16:48:57;101069.63;;;37.44;21.06
13456;BME280;6800;50.940;6.940;2022-07-23T16:52:58;101071.88;;;37.47;21.26
13456;BME280;6800;50.940;6.940;2022-07-23T16:56:59;101066.72;;;37.50;21.16
13456;BME280;6800;50.940;6.940;2022-07-23T17:00:59;101064.94;;;37.39;20.91
13456;BME280;6800;50.940;6.940;2022-07-23T17:05:00;101067.25;;;37.31;21.90
13456;BME280;6800;50.940;6.940;2022-07-23T17:09:00;101076.59;;;37.35;21.29
13456;BME280;6800;50.940;6.940;2022-07-23T17:13:01;101075.53;;;36.98;21.94
13456;BME280;6800;50.940;6.940;2022-07-23T17:17:01;101071.38;;;37.12;21.38
13456;BME280;6800;50.940;6.940;2022-07-23T17:21:02;101073.44;;;36.05;22.65
13456;BME280;6800;50.940;6.940;2022-07-23T17:25:03;101065.31;;;35.14;24.35
13456;BME280;6800;50.940;6.940;2022-07-23T17:29:09;101069.53;;;35.21;24.24
13456;BME280;6800;50.940;6.940;2022-07-23T17:33:09;101068.09;;;35.82;23.32
13456;BME280;6800;50.940;6.940;2022-07-23T17:37:10;101070.94;;;36.82;22.14
13456;BME280;6800;50.940;6.940;2022-07-23T17:41:10;101072.28;;;36.01;23.20
13456;BME280;6800;50.940;6.940;2022-07-23T17:45:11;101066.19;;;36.27;23.08
13456;BME280;6800;50.940;6.940;2022-07-23T17:49:14;101071.72;;;35.87;23.65
13456;BME280;6800;50.940;6.940;2022-07-23T17:53:15;101071.69;;;35.99;23.52
13456;BME280;6800;50.940;6.940;2022-07-23T17:57:15;101072.31;;;36.67;22.41
13456;BME280;6800;50.940;6.940;2022-07-23T18:01:16;101076.44;;;36.87;22.28
13456;BME280;6800;50.940;6.940;2022-07-23T18:05:16;101077.97;;;35.60;24.45
13456;BME280;6800;50.940;6.940;2022-07-23T18:09:17;101080.88;;;36.10;23.69
13456;BME280;6800;50.940;6.940;2022-07-23T18:13:18;101081.78;;;36.32;22.51
13456;BME280;6800;50.940;6.940;2022-07-23T18:17:18;101082.63;;;36.65;22.53
13456;BME280;6800;50.940;6.940;2022-07-23T18:21:19;101083.78;;;36.36;23.03
13456;BME280;6800;50.940;6.940;2022-07-23T18:25:21;101089.84;;;36.27;23.01
13456;BME280;6800;50.940;6.940;2022-07-23T18:29:21;101086.06;;;36.28;23.08
13456;BME280;6800;50.940;6.940;2022-07-23T18:33:21;101094.09;;;36.06;22.92
13456;BME280;6800;50.940;6.940;2022-07-23T18:37:22;101100.34;;;36.18;23.20
13456;BME280;6800;50.940;6.940;2022-07-23T18:41:23;101092.56;;;35.82;23.22
13456;BME280;6800;50.940;6.940;2022-07-23T18:45:25;101090.63;;;35.43;24.38
13456;BME280;6800;50.940;6.940;2022-07-23T18:49:25;101101.66;;;35.76;23.74
13456;BME280;6800;50.940;6.940;2022-07-23T18:53:26;101105.59;;;35.68;24.20
13456;BME280;6800;50.940;6.940;2022-07-23T18:57:27;101100.34;;;34.92;24.93
13456;BME280;6800;50.940;6.940;2022-07-23T19:01:28;101103.16;;;35.55;24.32
13456;BME280;6800;50.940;6.940;2022-07-23T19:05:31;101103.50;;;35.59;24.35
13456;BME280;6800;50.940;6.940;2022-07-23T19:09:31;101111.06;;;35.33;24.44
13456;BME280;6800;50.940;6.940;2022-07-23T19:13:32;101114.75;;;35.39;24.11
13456;BME280;6800;50.940;6.940;2022-07-23T19:17:34;101108.03;;;35.18;24.65
13456;BME280;6800;50.940;6.940;2022-07-23T19:21:34;101108.44;;;34.58;25.30
13456;BME280;6800;50.940;6.940;2022-07-23T19:25:35;101111.53;;;34.20;25.96
13456;BME280;6800;50.940;6.940;2022-07-23T19:29:35;101124.06;;;34.03;26.18
13456;BME280;6800;50.940;6.940;2022-07-23T19:33:36;101118.16;;;34.88;25.34
13456;BME280;6800;50.940;6.940;2022-07-23T19:37:36;101121.22;;;34.92;24.84
13456;BME280;6800;50.940;6.940;2022-07-23T19:41:37;101128.06;;;34.30;26.08
13456;BME280;6800;50.940;6.940;2022-07-23T19:45:37;101134.72;;;34.45;25.84
13456;BME280;6800;50.940;6.940;2022-07-23T19:49:38;101140.56;;;34.72;25.32
13456;BME280;6800;50.940;6.940;2022-07-23T19:53:38;101146.81;;;34.61;25.78
13456;BME280;6800;50.940;6.940;2022-07-23T19:57:38;101151.09;;;34.92;24.97
13456;BME280;6800;50.940;6.940;2022-07-23T20:01:39;101152.47;;;34.60;25.54
13456;BME280;6800;50.940;6.940;2022-07-23T20:05:39;101146.94;;;34.36;26.13
13456;BME280;6800;50.940;6.940;2022-07-23T20:09:40;101146.69;;;34.38;25.93
13456;BME280;6800;50.940;6.940;2022-07-23T20:13:40;101149.56;;;34.43;25.67
13456;BME280;6800;50.940;6.940;2022-07-23T20:17:41;101150.41;;;33.96;26.37
13456;BME280;6800;50.940;6.940;2022-07-23T20:21:41;101152.44;;;34.18;26.18
13456;BME280;6800;50.940;6.940;2022-07-23T20:25:44;101150.41;;;34.43;26.09
13456;BME280;6800;50.940;6.940;2022-07-23T20:29:44;101146.34;;;34.34;26.43
13456;BME280;6800;50.940;6.940;2022-07-23T20:33:45;101152.47;;;33.64;27.39
13456;BME280;6800;50.940;6.940;2022-07-23T20:37:45;101157.34;;;34.10;26.67
13456;BME280;6800;50.940;6.940;2022-07-23T20:41:45;101164.72;;;34.21;26.84
13456;BME280;6800;50.940;6.940;2022-07-23T20:45:46;101165.94;;;34.07;27.05
13456;BME280;6800;50.940;6.940;2022-07-23T20:49:46;101162.31;;;34.13;27.04
13456;BME280;6800;50.940;6.940;2022-07-23T20:53:46;101162.75;;;33.92;27.18
13456;BME280;6800;50.940;6.940;2022-07-23T20:57:47;101161.38;;;34.19;26.96
13456;BME280;6800;50.940;6.940;2022-07-23T21:01:48;101160.56;;;34.18;26.24
13456;BME280;6800;50.940;6.940;2022-07-23T21:05:48;101161.38;;;34.19;27.17
13456;BME280;6800;50.940;6.940;2022-07-23T21:09:49;101177.34;;;34.27;26.96
13456;BME280;6800;50.940;6.940;2022-07-23T21:13:50;101171.66;;;33.62;27.81
13456;BME280;6800;50.940;6.940;2022-07-23T21:17:50;101176.47;;;33.97;27.89
13456;BME280;6800;50.940;6.940;2022-07-23T21:21:51;101170.56;;;33.70;28.25